createdAt,value
2022-09-10T00:01:25.002Z,63.33
2022-09-10T00:03:53.475Z,63.31
2022-09-10T00:06:20.909Z,63.41
2022-09-10T00:08:49.019Z,63.60
2022-09-10T00:11:15.954Z,63.73
2022-09-10T00:13:43.115Z,63.88
2022-09-10T00:16:13.275Z,63.28
2022-09-10T00:18:41.143Z,63.75
2022-09-10T00:21:11.921Z,63.73
2022-09-10T00:23:39.214Z,63.76
2022-09-10T00:26:27.930Z,63.30
2022-09-10T00:28:56.412Z,63.73
2022-09-10T00:31:24.034Z,63.56
2022-09-10T00:33:51.330Z,63.73
2022-09-10T00:36:24.015Z,63.51
2022-09-10T00:38:51.981Z,63.48
2022-09-10T00:41:20.257Z,63.95
2022-09-10T00:43:49.820Z,63.64
2022-09-10T00:46:28.821Z,63.73
2022-09-10T00:48:58.504Z,63.73
2022-09-10T00:51:26.680Z,64.01
2022-09-10T00:53:54.303Z,64.03
2022-09-10T00:56:21.612Z,63.89
2022-09-10T00:58:49.207Z,64.18
2022-09-10T01:01:16.627Z,64.09
2022-09-10T01:03:44.671Z,63.84
2022-09-10T01:06:11.325Z,64.06
2022-09-10T01:08:38.296Z,63.99
2022-09-10T01:11:24.102Z,63.49
2022-09-10T01:14:24.289Z,63.68
2022-09-10T01:17:12.171Z,63.71
2022-09-10T01:20:00.594Z,63.65
2022-09-10T01:23:04.775Z,63.61
2022-09-10T01:25:48.476Z,63.78
2022-09-10T01:28:27.297Z,63.45
2022-09-10T01:31:01.905Z,63.44
2022-09-10T01:33:34.317Z,63.49
2022-09-10T01:36:06.859Z,63.85
2022-09-10T01:38:36.740Z,63.65
2022-09-10T01:41:03.355Z,63.76
2022-09-10T01:43:30.458Z,63.76
2022-09-10T01:46:14.896Z,63.60
2022-09-10T01:49:00.650Z,63.58
2022-09-10T01:51:52.990Z,63.66
2022-09-10T01:54:37.073Z,63.64
2022-09-10T01:57:39.057Z,63.47
2022-09-10T02:00:12.249Z,63.32
2022-09-10T02:02:53.372Z,63.62
2022-09-10T02:05:23.620Z,63.78
2022-09-10T02:07:55.278Z,63.45
2022-09-10T02:10:22.715Z,63.95
2022-09-10T02:12:49.698Z,64.10
2022-09-10T02:15:18.798Z,63.83
2022-09-10T02:17:46.662Z,63.85
2022-09-10T02:20:14.736Z,63.93
2022-09-10T02:22:49.940Z,63.55
2022-09-10T02:25:16.423Z,63.34
2022-09-10T02:27:43.978Z,63.58
2022-09-10T02:30:11.761Z,63.84
2022-09-10T02:32:38.149Z,63.59
2022-09-10T02:35:05.352Z,63.61
2022-09-10T02:37:31.781Z,63.88
2022-09-10T02:39:58.197Z,63.94
2022-09-10T02:42:26.957Z,63.92
2022-09-10T02:44:53.906Z,64.03
2022-09-10T02:47:20.326Z,63.87
2022-09-10T02:49:46.888Z,63.64
2022-09-10T02:52:13.345Z,63.88
2022-09-10T02:54:40.184Z,63.76
2022-09-10T02:57:07.606Z,63.90
2022-09-10T02:59:34.141Z,63.88
2022-09-10T03:02:00.692Z,64.14
2022-09-10T03:04:27.147Z,64.26
2022-09-10T03:06:54.920Z,64.11
2022-09-10T03:09:22.577Z,63.97
2022-09-10T03:11:49.838Z,63.98
2022-09-10T03:14:20.262Z,63.84
2022-09-10T03:16:47.952Z,63.73
2022-09-10T03:19:15.477Z,63.82
2022-09-10T03:21:42.267Z,63.66
2022-09-10T03:24:13.389Z,63.73
2022-09-10T03:26:43.604Z,63.69
2022-09-10T03:29:10.595Z,63.67
2022-09-10T03:31:37.271Z,63.85
2022-09-10T03:34:04.130Z,63.57
2022-09-10T03:36:33.084Z,63.94
2022-09-10T03:38:59.526Z,63.87
2022-09-10T03:41:28.431Z,63.81
2022-09-10T03:43:55.736Z,63.70
2022-09-10T03:46:22.670Z,63.75
2022-09-10T03:48:53.280Z,63.72
2022-09-10T03:51:21.610Z,63.54
2022-09-10T03:53:48.158Z,63.98
2022-09-10T03:56:15.455Z,63.98
2022-09-10T03:58:41.845Z,63.81
2022-09-10T04:01:08.605Z,63.83
2022-09-10T04:03:35.040Z,64.04
2022-09-10T04:06:01.446Z,63.82
2022-09-10T04:08:27.875Z,63.71
2022-09-10T04:10:57.024Z,64.02
2022-09-10T04:13:23.489Z,63.91
2022-09-10T04:15:50.022Z,63.85
2022-09-10T04:18:16.405Z,63.92
2022-09-10T04:20:46.556Z,63.84
2022-09-10T04:23:13.034Z,63.71
2022-09-10T04:25:39.474Z,63.77
2022-09-10T04:28:06.036Z,63.86
2022-09-10T04:30:32.446Z,64.14
2022-09-10T04:32:59.006Z,64.00
2022-09-10T04:35:26.577Z,64.07
2022-09-10T04:37:52.950Z,63.85
2022-09-10T04:40:19.365Z,64.08
2022-09-10T04:42:45.764Z,64.06
2022-09-10T04:45:12.284Z,63.81
2022-09-10T04:47:38.695Z,63.91
2022-09-10T04:50:06.429Z,63.88
2022-09-10T04:52:33.346Z,64.05
2022-09-10T04:54:59.762Z,63.73
2022-09-10T04:57:26.138Z,64.18
2022-09-10T04:59:55.752Z,64.08
2022-09-10T05:02:22.205Z,64.26
2022-09-10T05:04:48.651Z,64.13
2022-09-10T05:07:15.033Z,63.74
2022-09-10T05:09:41.487Z,63.88
2022-09-10T05:12:08.036Z,64.08
2022-09-10T05:14:34.434Z,64.03
2022-09-10T05:17:01.516Z,63.81
2022-09-10T05:19:27.884Z,63.85
2022-09-10T05:21:54.277Z,64.07
2022-09-10T05:24:21.133Z,63.87
2022-09-10T05:26:47.526Z,63.67
2022-09-10T05:29:14.129Z,63.92
2022-09-10T05:31:40.934Z,63.86
2022-09-10T05:34:08.426Z,63.65
2022-09-10T05:36:35.494Z,63.82
2022-09-10T05:39:06.127Z,63.83
2022-09-10T05:41:32.687Z,63.79
2022-09-10T05:43:59.826Z,63.54
2022-09-10T05:46:26.798Z,63.74
2022-09-10T05:48:54.261Z,63.89
2022-09-10T05:51:22.233Z,63.95
2022-09-10T05:53:49.879Z,63.79
2022-09-10T05:56:16.766Z,64.14
2022-09-10T05:58:45.204Z,64.12
2022-09-10T06:01:11.814Z,63.89
2022-09-10T06:03:38.185Z,63.58
2022-09-10T06:06:06.138Z,63.83
2022-09-10T06:08:32.670Z,63.88
2022-09-10T06:11:04.114Z,63.76
2022-09-10T06:13:31.774Z,63.84
2022-09-10T06:15:59.375Z,63.48
2022-09-10T06:18:25.786Z,63.61
2022-09-10T06:21:24.967Z,63.44
2022-09-10T06:23:57.105Z,63.37
2022-09-10T06:26:23.511Z,63.34
2022-09-10T06:28:49.997Z,63.45
2022-09-10T06:31:20.062Z,63.42
2022-09-10T06:33:48.855Z,63.38
2022-09-10T06:36:15.854Z,63.43
2022-09-10T06:38:45.103Z,63.55
2022-09-10T06:41:13.937Z,63.16
2022-09-10T06:43:41.450Z,63.39
2022-09-10T06:46:32.000Z,63.23
2022-09-10T06:49:00.976Z,63.07
2022-09-10T06:51:27.477Z,63.23
2022-09-10T06:53:53.883Z,63.08
2022-09-10T06:56:20.931Z,63.09
2022-09-10T06:58:47.364Z,63.08
2022-09-10T07:01:19.284Z,63.08
2022-09-10T07:03:46.432Z,63.22
2022-09-10T07:06:17.363Z,62.77
2022-09-10T07:08:44.214Z,62.73
2022-09-10T07:11:12.919Z,62.60
2022-09-10T07:13:40.696Z,62.44
2022-09-10T07:16:07.186Z,62.25
2022-09-10T07:18:34.243Z,62.30
2022-09-10T07:21:15.247Z,62.33
2022-09-10T07:23:41.829Z,62.36
2022-09-10T07:26:13.805Z,62.35
2022-09-10T07:28:42.389Z,62.03
2022-09-10T07:31:18.871Z,62.10
2022-09-10T07:33:46.989Z,62.03
2022-09-10T07:36:14.528Z,62.05
2022-09-10T07:38:42.014Z,62.07
2022-09-10T07:41:11.361Z,61.76
2022-09-10T07:43:41.745Z,61.54
2022-09-10T07:46:13.717Z,61.49
2022-09-10T07:48:41.435Z,61.48
2022-09-10T07:51:08.835Z,61.04
2022-09-10T07:53:35.785Z,61.19
2022-09-10T07:56:04.982Z,61.26
2022-09-10T07:58:32.974Z,61.12
2022-09-10T08:01:00.245Z,60.99
2022-09-10T08:03:27.850Z,61.22
2022-09-10T08:05:55.328Z,60.91
2022-09-10T08:08:22.326Z,60.72
2022-09-10T08:10:49.672Z,60.49
2022-09-10T08:13:16.416Z,60.08
2022-09-10T08:15:44.711Z,60.17
2022-09-10T08:18:13.543Z,60.02
2022-09-10T08:20:40.731Z,59.57
2022-09-10T08:23:07.679Z,59.34
2022-09-10T08:25:34.876Z,59.05
2022-09-10T08:28:01.341Z,58.90
2022-09-10T08:30:28.561Z,58.72
2022-09-10T08:32:56.159Z,58.83
2022-09-10T08:35:22.571Z,57.79
2022-09-10T08:37:49.014Z,58.50
2022-09-10T08:40:16.367Z,58.64
2022-09-10T08:42:49.451Z,58.68
2022-09-10T08:45:21.027Z,58.48
2022-09-10T08:48:08.749Z,58.64
2022-09-10T08:50:41.370Z,58.72
2022-09-10T08:53:23.058Z,58.42
2022-09-10T08:55:50.711Z,57.65
2022-09-10T08:58:23.278Z,57.51
2022-09-10T09:00:55.754Z,57.34
2022-09-10T09:03:32.683Z,57.38
2022-09-10T09:06:01.611Z,57.26
2022-09-10T09:08:41.072Z,57.68
2022-09-10T09:11:20.139Z,57.61
2022-09-10T09:14:08.350Z,57.64
2022-09-10T09:17:01.402Z,57.76
2022-09-10T09:19:44.850Z,57.21
2022-09-10T09:22:27.367Z,57.29
2022-09-10T09:25:00.744Z,57.06
2022-09-10T09:27:33.750Z,57.71
2022-09-10T09:30:06.771Z,57.95
2022-09-10T09:32:37.161Z,57.90
2022-09-10T09:35:25.216Z,58.08
2022-09-10T09:38:06.919Z,58.06
2022-09-10T09:40:44.861Z,58.02
2022-09-10T09:43:34.139Z,57.66
2022-09-10T09:46:01.982Z,57.44
2022-09-10T09:48:37.891Z,57.31
2022-09-10T09:51:04.790Z,57.83
2022-09-10T09:53:31.282Z,56.42
2022-09-10T09:56:03.879Z,56.32
2022-09-10T09:58:33.580Z,56.06
2022-09-10T10:01:06.911Z,55.99
2022-09-10T10:03:37.514Z,55.64
2022-09-10T10:06:09.454Z,54.37
2022-09-10T10:08:41.343Z,54.46
2022-09-10T10:11:08.911Z,53.75
2022-09-10T10:13:43.033Z,53.93
2022-09-10T10:16:17.326Z,53.89
2022-09-10T10:18:45.259Z,53.81
2022-09-10T10:21:16.428Z,53.88
2022-09-10T10:23:43.781Z,53.60
2022-09-10T10:26:26.148Z,53.71
2022-09-10T10:28:59.892Z,53.99
2022-09-10T10:31:42.149Z,54.58
2022-09-10T10:34:54.879Z,55.04
2022-09-10T10:37:56.744Z,54.99
2022-09-10T10:40:33.753Z,55.27
2022-09-10T10:43:20.146Z,55.62
2022-09-10T10:45:56.070Z,55.87
2022-09-10T10:48:43.382Z,55.87
2022-09-10T10:51:20.437Z,55.86
2022-09-10T10:54:03.057Z,55.97
2022-09-10T10:56:37.680Z,55.56
2022-09-10T10:59:26.755Z,55.89
2022-09-10T11:02:00.974Z,55.83
2022-09-10T11:04:47.227Z,55.96
2022-09-10T11:07:28.049Z,56.19
2022-09-10T11:10:06.065Z,56.07
2022-09-10T11:12:47.357Z,56.19
2022-09-10T11:15:52.544Z,56.06
2022-09-10T11:18:42.750Z,56.05
2022-09-10T11:21:17.148Z,56.28
2022-09-10T11:23:54.974Z,56.46
2022-09-10T11:26:34.781Z,56.40
2022-09-10T11:29:34.546Z,56.40
2022-09-10T11:32:26.975Z,56.55
2022-09-10T11:35:02.410Z,56.56
2022-09-10T11:37:51.002Z,56.75
2022-09-10T11:40:31.237Z,56.70
2022-09-10T11:43:04.088Z,56.40
2022-09-10T11:45:47.757Z,56.63
2022-09-10T11:48:29.070Z,56.47
2022-09-10T11:51:01.187Z,56.38
2022-09-10T11:53:30.387Z,56.50
2022-09-10T11:56:11.794Z,56.47
2022-09-10T11:58:41.174Z,56.59
2022-09-10T12:01:30.273Z,56.86
2022-09-10T12:04:10.639Z,56.76
2022-09-10T12:06:52.312Z,56.55
2022-09-10T12:09:34.803Z,56.29
2022-09-10T12:12:15.298Z,56.26
2022-09-10T12:14:42.257Z,56.32
2022-09-10T12:17:23.516Z,56.11
2022-09-10T12:19:54.734Z,55.88
2022-09-10T12:22:33.328Z,55.51
2022-09-10T12:25:33.608Z,55.66
2022-09-10T12:28:03.777Z,54.91
2022-09-10T12:30:58.885Z,54.74
2022-09-10T12:33:26.506Z,54.26
2022-09-10T12:35:52.948Z,53.68
2022-09-10T12:38:50.188Z,53.68
2022-09-10T12:41:22.812Z,53.75
2022-09-10T12:43:49.183Z,53.01
2022-09-10T12:46:17.641Z,53.00
2022-09-10T12:48:51.458Z,52.28
2022-09-10T12:51:21.584Z,51.81
2022-09-10T12:54:24.234Z,52.28
2022-09-10T12:57:08.199Z,51.75
2022-09-10T12:59:53.206Z,51.92
2022-09-10T13:02:27.893Z,51.40
2022-09-10T13:04:58.567Z,51.58
2022-09-10T13:07:36.957Z,50.92
2022-09-10T13:10:21.140Z,50.67
2022-09-10T13:12:55.095Z,51.16
2022-09-10T13:15:24.774Z,50.81
2022-09-10T13:17:54.401Z,50.57
2022-09-10T13:20:23.679Z,50.13
2022-09-10T13:22:57.962Z,50.33
2022-09-10T13:25:42.691Z,50.86
2022-09-10T13:28:30.710Z,50.80
2022-09-10T13:31:11.867Z,50.13
2022-09-10T13:33:56.750Z,49.92
2022-09-10T13:36:33.190Z,49.03
2022-09-10T13:39:27.024Z,49.36
2022-09-10T13:41:59.899Z,48.33
2022-09-10T13:44:45.445Z,48.50
2022-09-10T13:47:16.791Z,48.04
2022-09-10T13:50:05.840Z,47.76
2022-09-10T13:52:37.429Z,47.94
2022-09-10T13:55:08.024Z,47.27
2022-09-10T13:57:47.537Z,47.17
2022-09-10T14:00:17.080Z,47.04
2022-09-10T14:02:49.300Z,46.87
2022-09-10T14:05:27.384Z,47.17
2022-09-10T14:08:01.635Z,46.39
2022-09-10T14:10:28.682Z,45.85
2022-09-10T14:12:57.360Z,45.38
2022-09-10T14:15:29.328Z,45.93
2022-09-10T14:17:59.280Z,45.48
2022-09-10T14:20:30.528Z,45.26
2022-09-10T14:23:12.849Z,45.29
2022-09-10T14:25:42.466Z,45.20
2022-09-10T14:28:20.837Z,44.88
2022-09-10T14:30:49.388Z,44.70
2022-09-10T14:33:42.167Z,45.53
2022-09-10T14:36:33.494Z,44.85
2022-09-10T14:39:15.099Z,44.39
2022-09-10T14:41:42.035Z,44.68
2022-09-10T14:44:23.861Z,45.33
2022-09-10T14:47:10.645Z,45.83
2022-09-10T14:49:41.366Z,45.88
2022-09-10T14:52:11.124Z,46.22
2022-09-10T14:54:37.850Z,46.55
2022-09-10T14:57:10.034Z,46.59
2022-09-10T14:59:38.838Z,46.50
2022-09-10T15:02:28.653Z,47.28
2022-09-10T15:04:55.431Z,47.31
2022-09-10T15:07:23.709Z,47.39
2022-09-10T15:09:53.027Z,47.78
2022-09-10T15:12:24.678Z,47.66
2022-09-10T15:14:51.934Z,47.48
2022-09-10T15:17:18.857Z,46.94
2022-09-10T15:19:46.980Z,46.89
2022-09-10T15:22:20.940Z,46.90
2022-09-10T15:25:08.646Z,47.09
2022-09-10T15:27:34.332Z,46.84
2022-09-10T15:30:00.898Z,46.85
2022-09-10T15:32:27.288Z,46.90
2022-09-10T15:34:53.902Z,46.70
2022-09-10T15:37:22.347Z,46.86
2022-09-10T15:39:48.811Z,47.09
2022-09-10T15:42:15.541Z,47.16
2022-09-10T15:44:41.963Z,47.01
2022-09-10T15:47:08.380Z,47.11
2022-09-10T15:49:35.429Z,47.08
2022-09-10T15:52:02.561Z,47.19
2022-09-10T15:54:29.081Z,47.66
2022-09-10T15:56:55.520Z,48.15
2022-09-10T15:59:23.281Z,48.32
2022-09-10T16:01:50.193Z,48.26
2022-09-10T16:04:16.795Z,48.00
2022-09-10T16:06:43.776Z,48.62
2022-09-10T16:09:12.804Z,48.98
2022-09-10T16:11:41.630Z,48.84
2022-09-10T16:14:11.832Z,48.88
2022-09-10T16:16:39.202Z,48.39
2022-09-10T16:19:05.924Z,48.40
2022-09-10T16:21:35.089Z,48.23
2022-09-10T16:24:01.866Z,47.69
2022-09-10T16:26:37.131Z,48.22
2022-09-10T16:29:06.973Z,48.44
2022-09-10T16:31:35.826Z,48.38
2022-09-10T16:34:04.903Z,48.36
2022-09-10T16:36:33.660Z,48.96
2022-09-10T16:39:01.718Z,48.49
2022-09-10T16:41:29.382Z,48.21
2022-09-10T16:43:58.451Z,48.60
2022-09-10T16:46:26.244Z,48.76
2022-09-10T16:48:54.208Z,48.44
2022-09-10T16:51:25.372Z,49.13
2022-09-10T16:53:57.150Z,49.31
2022-09-10T16:56:25.346Z,49.14
2022-09-10T16:58:51.934Z,49.36
2022-09-10T17:01:18.734Z,49.42
2022-09-10T17:03:54.614Z,49.40
2022-09-10T17:06:26.789Z,49.85
2022-09-10T17:08:55.198Z,50.50
2022-09-10T17:11:22.804Z,50.43
2022-09-10T17:13:50.963Z,51.41
2022-09-10T17:16:26.654Z,50.55
2022-09-10T17:19:03.853Z,50.85
2022-09-10T17:21:32.053Z,50.97
2022-09-10T17:23:59.256Z,51.34
2022-09-10T17:26:27.042Z,51.81
2022-09-10T17:29:01.959Z,51.61
2022-09-10T17:31:29.645Z,51.86
2022-09-10T17:33:57.125Z,51.66
2022-09-10T17:36:25.313Z,52.19
2022-09-10T17:38:53.654Z,52.30
2022-09-10T17:41:21.522Z,52.09
2022-09-10T17:43:48.490Z,52.28
2022-09-10T17:46:18.135Z,52.58
2022-09-10T17:48:45.742Z,52.30
2022-09-10T17:51:15.352Z,52.42
2022-09-10T17:53:42.393Z,52.86
2022-09-10T17:56:11.539Z,52.86
2022-09-10T17:58:38.351Z,52.92
2022-09-10T18:01:13.910Z,52.84
2022-09-10T18:03:40.817Z,53.04
2022-09-10T18:06:10.239Z,52.95
2022-09-10T18:08:38.109Z,52.98
2022-09-10T18:11:10.019Z,52.81
2022-09-10T18:13:37.158Z,52.86
2022-09-10T18:16:16.844Z,52.63
2022-09-10T18:18:45.960Z,53.05
2022-09-10T18:21:19.418Z,53.19
2022-09-10T18:23:56.275Z,53.36
2022-09-10T18:26:25.027Z,53.66
2022-09-10T18:28:56.855Z,53.79
2022-09-10T18:31:25.088Z,54.25
2022-09-10T18:33:53.623Z,54.29
2022-09-10T18:36:20.606Z,54.90
2022-09-10T18:38:47.431Z,54.78
2022-09-10T18:41:24.732Z,55.04
2022-09-10T18:43:53.509Z,55.12
2022-09-10T18:46:20.927Z,55.06
2022-09-10T18:48:48.191Z,55.47
2022-09-10T18:51:16.670Z,55.45
2022-09-10T18:53:45.222Z,55.66
2022-09-10T18:56:18.094Z,55.48
2022-09-10T18:58:56.065Z,55.68
2022-09-10T19:01:24.044Z,56.03
2022-09-10T19:03:50.914Z,56.32
2022-09-10T19:06:20.105Z,56.20
2022-09-10T19:08:55.231Z,56.35
2022-09-10T19:11:24.406Z,56.74
2022-09-10T19:13:53.730Z,56.55
2022-09-10T19:16:22.499Z,56.96
2022-09-10T19:18:51.038Z,56.76
2022-09-10T19:21:20.105Z,57.43
2022-09-10T19:23:47.654Z,57.18
2022-09-10T19:26:14.326Z,57.00
2022-09-10T19:28:40.782Z,57.34
2022-09-10T19:31:08.672Z,57.25
2022-09-10T19:33:39.466Z,57.56
2022-09-10T19:36:08.330Z,57.40
2022-09-10T19:38:37.738Z,57.62
2022-09-10T19:41:13.053Z,57.78
2022-09-10T19:43:41.029Z,57.83
2022-09-10T19:46:12.823Z,57.97
2022-09-10T19:48:40.118Z,58.21
2022-09-10T19:51:10.456Z,58.14
2022-09-10T19:53:37.941Z,58.08
2022-09-10T19:56:04.454Z,58.28
2022-09-10T19:58:30.882Z,58.45
2022-09-10T20:00:57.358Z,58.85
2022-09-10T20:03:23.745Z,58.63
2022-09-10T20:05:50.163Z,58.53
2022-09-10T20:08:16.594Z,58.74
2022-09-10T20:10:51.877Z,58.66
2022-09-10T20:13:18.438Z,58.99
2022-09-10T20:15:45.611Z,58.95
2022-09-10T20:18:12.187Z,59.08
2022-09-10T20:20:38.673Z,59.28
2022-09-10T20:23:05.066Z,59.10
2022-09-10T20:25:31.940Z,59.33
2022-09-10T20:27:58.750Z,59.40
2022-09-10T20:30:25.358Z,59.74
2022-09-10T20:32:51.722Z,59.47
2022-09-10T20:35:18.228Z,59.28
2022-09-10T20:37:47.804Z,59.54
2022-09-10T20:40:16.929Z,59.13
2022-09-10T20:42:43.472Z,59.52
2022-09-10T20:45:10.973Z,59.34
2022-09-10T20:47:42.950Z,59.45
2022-09-10T20:50:11.495Z,59.34
2022-09-10T20:52:38.014Z,59.58
2022-09-10T20:55:05.876Z,59.54
2022-09-10T20:57:32.417Z,59.75
2022-09-10T20:59:58.955Z,60.09
2022-09-10T21:02:26.345Z,59.68
2022-09-10T21:04:52.838Z,59.82
2022-09-10T21:07:20.194Z,59.58
2022-09-10T21:09:46.666Z,60.09
2022-09-10T21:12:13.123Z,60.21
2022-09-10T21:14:39.573Z,59.93
2022-09-10T21:17:06.104Z,60.02
2022-09-10T21:19:32.490Z,60.24
2022-09-10T21:21:58.869Z,60.36
2022-09-10T21:24:27.926Z,59.98
2022-09-10T21:26:54.957Z,60.45
2022-09-10T21:29:22.370Z,60.23
2022-09-10T21:31:50.679Z,60.49
2022-09-10T21:34:17.475Z,60.24
2022-09-10T21:36:44.009Z,60.37
2022-09-10T21:39:15.653Z,60.30
2022-09-10T21:41:44.903Z,60.33
2022-09-10T21:44:14.329Z,60.56
2022-09-10T21:46:44.966Z,60.47
2022-09-10T21:49:11.821Z,60.66
2022-09-10T21:51:38.454Z,60.85
2022-09-10T21:54:05.262Z,60.71
2022-09-10T21:56:32.102Z,60.66
2022-09-10T21:59:00.382Z,60.65
2022-09-10T22:01:30.124Z,60.42
2022-09-10T22:03:59.549Z,60.45
2022-09-10T22:06:31.289Z,60.29
2022-09-10T22:09:00.271Z,60.43
2022-09-10T22:11:34.123Z,60.33
2022-09-10T22:14:02.971Z,60.55
2022-09-10T22:16:33.813Z,60.82
2022-09-10T22:19:03.314Z,60.66
2022-09-10T22:21:30.458Z,60.59
2022-09-10T22:23:57.026Z,60.76
2022-09-10T22:26:28.274Z,60.69
2022-09-10T22:28:57.094Z,60.71
2022-09-10T22:31:25.439Z,60.86
2022-09-10T22:33:57.347Z,60.71
2022-09-10T22:36:26.621Z,60.86
2022-09-10T22:38:59.303Z,61.10
2022-09-10T22:41:27.142Z,61.25
2022-09-10T22:43:53.937Z,61.40
2022-09-10T22:46:21.413Z,61.67
2022-09-10T22:48:47.948Z,61.44
2022-09-10T22:51:17.993Z,61.32
2022-09-10T22:53:45.515Z,61.40
2022-09-10T22:56:13.674Z,61.46
2022-09-10T22:58:40.898Z,61.83
2022-09-10T23:01:10.689Z,61.64
2022-09-10T23:03:37.759Z,61.87
2022-09-10T23:06:16.393Z,61.71
2022-09-10T23:08:44.597Z,62.17
2022-09-10T23:11:21.002Z,62.23
2022-09-10T23:13:50.149Z,62.57
2022-09-10T23:16:19.508Z,62.56
2022-09-10T23:18:51.767Z,62.54
2022-09-10T23:21:19.454Z,62.70
2022-09-10T23:23:48.085Z,62.73
2022-09-10T23:26:15.713Z,63.01
2022-09-10T23:28:42.405Z,63.07
2022-09-10T23:31:30.004Z,62.92
2022-09-10T23:34:07.586Z,62.82
2022-09-10T23:36:37.071Z,63.00
2022-09-10T23:39:07.063Z,62.55
2022-09-10T23:41:34.617Z,62.81
2022-09-10T23:44:01.158Z,62.58
2022-09-10T23:46:27.594Z,62.64
2022-09-10T23:48:54.703Z,62.79
2022-09-10T23:51:21.113Z,63.01
2022-09-10T23:53:48.484Z,62.59
2022-09-10T23:56:17.268Z,62.71
2022-09-10T23:58:44.439Z,63.09
